createdAt,value
2019-04-20T00:00:41.114Z,-72
2019-04-20T00:03:07.715Z,-71
2019-04-20T00:05:41.368Z,-72
2019-04-20T00:08:16.807Z,-72
2019-04-20T00:10:51.380Z,-71
2019-04-20T00:13:24.642Z,-71
2019-04-20T00:15:45.052Z,-72
2019-04-20T00:18:15.143Z,-71
2019-04-20T00:20:50.384Z,-72
2019-04-20T00:23:33.672Z,-72
2019-04-20T00:26:14.858Z,-74
2019-04-20T00:28:56.146Z,-73
2019-04-20T00:31:25.038Z,-73
2019-04-20T00:33:51.805Z,-73
2019-04-20T00:36:11.865Z,-73
2019-04-20T00:38:48.300Z,-72
2019-04-20T00:41:15.190Z,-73
2019-04-20T00:43:44.146Z,-73
2019-04-20T00:46:22.214Z,-72
2019-04-20T00:48:53.765Z,-73
2019-04-20T00:51:30.579Z,-73
2019-04-20T00:53:51.469Z,-72
2019-04-20T00:56:20.164Z,-72
2019-04-20T00:59:03.072Z,-72
2019-04-20T01:01:43.987Z,-71
2019-04-20T01:04:10.441Z,-71
2019-04-20T01:06:46.338Z,-71
2019-04-20T01:09:09.949Z,-71
2019-04-20T01:11:43.235Z,-71
2019-04-20T01:14:13.929Z,-70
2019-04-20T01:16:49.089Z,-70
2019-04-20T01:19:15.928Z,-70
2019-04-20T01:21:49.840Z,-70
2019-04-20T01:24:24.778Z,-70
2019-04-20T01:26:50.580Z,-70
2019-04-20T01:29:29.692Z,-71
2019-04-20T01:32:01.089Z,-70
2019-04-20T01:34:35.892Z,-71
2019-04-20T01:37:04.486Z,-71
2019-04-20T01:39:32.986Z,-71
2019-04-20T01:41:54.047Z,-70
2019-04-20T01:44:30.107Z,-70
2019-04-20T01:46:58.814Z,-70
2019-04-20T01:49:30.632Z,-70
2019-04-20T01:52:07.671Z,-70
2019-04-20T01:54:48.187Z,-70
2019-04-20T01:57:08.103Z,-71
2019-04-20T01:59:46.063Z,-70
2019-04-20T02:02:20.979Z,-70
2019-04-20T02:04:53.538Z,-70
2019-04-20T02:07:28.445Z,-71
2019-04-20T02:09:58.385Z,-70
2019-04-20T02:12:30.374Z,-70
2019-04-20T02:14:59.370Z,-71
2019-04-20T02:17:36.674Z,-70
2019-04-20T02:20:18.591Z,-71
2019-04-20T02:22:46.444Z,-70
2019-04-20T02:24:59.553Z,-70
2019-04-20T02:27:36.874Z,-70
2019-04-20T02:30:30.031Z,-70
2019-04-20T02:33:13.999Z,-70
2019-04-20T02:35:45.360Z,-70
2019-04-20T02:38:40.171Z,-70
2019-04-20T02:40:53.962Z,-70
2019-04-20T02:43:39.320Z,-70
2019-04-20T02:45:44.201Z,-70
2019-04-20T02:50:50.077Z,-70
2019-04-20T02:53:46.580Z,-71
2019-04-20T02:55:58.015Z,-70
2019-04-20T02:58:24.005Z,-71
2019-04-20T03:00:52.625Z,-70
2019-04-20T03:03:10.727Z,-70
2019-04-20T03:05:40.607Z,-71
2019-04-20T03:08:17.339Z,-70
2019-04-20T03:10:54.981Z,-70
2019-04-20T03:13:18.312Z,-70
2019-04-20T03:15:51.348Z,-71
2019-04-20T03:18:23.562Z,-70
2019-04-20T03:20:52.805Z,-71
2019-04-20T03:23:38.560Z,-70
2019-04-20T03:26:16.131Z,-70
2019-04-20T03:28:43.503Z,-71
2019-04-20T03:32:15.495Z,-70
2019-04-20T03:36:39.813Z,-70
2019-04-20T03:38:57.343Z,-70
2019-04-20T03:41:19.544Z,-70
2019-04-20T03:43:41.910Z,-70
2019-04-20T03:46:14.388Z,-70
2019-04-20T03:48:58.839Z,-70
2019-04-20T03:51:39.842Z,-70
2019-04-20T03:54:18.421Z,-70
2019-04-20T03:57:15.694Z,-70
2019-04-20T03:59:39.171Z,-70
2019-04-20T04:02:37.887Z,-70
2019-04-20T04:05:00.117Z,-70
2019-04-20T04:07:21.866Z,-69
2019-04-20T04:10:03.009Z,-71
2019-04-20T04:13:09.346Z,-71
2019-04-20T04:15:47.878Z,-70
2019-04-20T04:18:19.709Z,-69
2019-04-20T04:20:51.300Z,-75
2019-04-20T04:23:33.875Z,-74
2019-04-20T04:26:05.988Z,-74
2019-04-20T04:28:31.111Z,-74
2019-04-20T04:31:09.527Z,-74
2019-04-20T04:33:54.861Z,-74
2019-04-20T04:36:04.620Z,-74
2019-04-20T04:38:44.633Z,-74
2019-04-20T04:43:42.598Z,-74
2019-04-20T04:45:55.405Z,-74
2019-04-20T04:48:29.907Z,-74
2019-04-20T04:51:02.453Z,-74
2019-04-20T04:53:40.762Z,-74
2019-04-20T04:56:04.887Z,-74
2019-04-20T04:58:29.827Z,-73
2019-04-20T05:01:05.727Z,-73
2019-04-20T05:03:44.960Z,-73
2019-04-20T05:06:24.441Z,-74
2019-04-20T05:08:45.472Z,-73
2019-04-20T05:11:11.105Z,-73
2019-04-20T05:13:48.534Z,-73
2019-04-20T05:16:33.868Z,-73
2019-04-20T05:19:03.377Z,-73
2019-04-20T05:21:29.878Z,-73
2019-04-20T05:24:07.541Z,-73
2019-04-20T05:26:53.413Z,-74
2019-04-20T05:29:06.754Z,-73
2019-04-20T05:34:40.354Z,-73
2019-04-20T05:37:17.599Z,-73
2019-04-20T05:39:39.939Z,-73
2019-04-20T05:42:13.023Z,-73
2019-04-20T05:44:41.656Z,-74
2019-04-20T05:47:11.305Z,-74
2019-04-20T05:49:40.282Z,-74
2019-04-20T05:52:24.313Z,-74
2019-04-20T05:54:48.961Z,-74
2019-04-20T05:57:22.565Z,-74
2019-04-20T06:00:00.630Z,-74
2019-04-20T06:02:26.257Z,-74
2019-04-20T06:05:00.477Z,-74
2019-04-20T06:07:26.762Z,-74
2019-04-20T06:09:54.666Z,-74
2019-04-20T06:12:28.523Z,-74
2019-04-20T06:15:02.690Z,-74
2019-04-20T06:17:53.372Z,-74
2019-04-20T06:20:26.967Z,-74
2019-04-20T06:23:05.580Z,-73
2019-04-20T06:25:46.106Z,-74
2019-04-20T06:28:02.886Z,-73
2019-04-20T06:30:28.386Z,-74
2019-04-20T06:34:01.341Z,-74
2019-04-20T06:36:21.783Z,-74
2019-04-20T06:41:24.829Z,-75
2019-04-20T06:43:54.203Z,-74
2019-04-20T06:46:30.054Z,-73
2019-04-20T06:48:56.464Z,-74
2019-04-20T06:51:22.364Z,-73
2019-04-20T06:53:55.013Z,-74
2019-04-20T06:56:42.049Z,-74
2019-04-20T06:59:21.579Z,-73
2019-04-20T07:01:48.875Z,-73
2019-04-20T07:04:33.527Z,-73
2019-04-20T07:06:50.772Z,-74
2019-04-20T07:09:35.017Z,-74
2019-04-20T07:11:51.894Z,-74
2019-04-20T07:14:11.118Z,-75
2019-04-20T07:16:59.905Z,-74
2019-04-20T07:19:48.056Z,-73
2019-04-20T07:27:25.608Z,-74
2019-04-20T07:30:07.922Z,-74
2019-04-20T07:32:17.606Z,-74
2019-04-20T07:34:56.705Z,-74
2019-04-20T07:40:13.829Z,-76
2019-04-20T07:42:44.596Z,-73
2019-04-20T07:45:18.303Z,-76
2019-04-20T07:50:09.022Z,-73
2019-04-20T07:52:33.992Z,-75
2019-04-20T07:55:35.184Z,-75
2019-04-20T07:57:40.448Z,-75
2019-04-20T08:00:13.467Z,-78
2019-04-20T08:03:03.117Z,-78
2019-04-20T08:05:28.474Z,-78
2019-04-20T08:07:53.924Z,-78
2019-04-20T08:10:33.770Z,-79
2019-04-20T08:13:09.551Z,-79
2019-04-20T08:18:07.659Z,-79
2019-04-20T08:20:43.636Z,-71
2019-04-20T08:23:15.420Z,-74
2019-04-20T08:25:31.573Z,-75
2019-04-20T08:27:55.117Z,-74
2019-04-20T08:30:46.498Z,-74
2019-04-20T08:33:26.614Z,-74
2019-04-20T08:35:58.446Z,-74
2019-04-20T08:39:01.370Z,-74
2019-04-20T08:40:58.376Z,-74
2019-04-20T08:43:42.090Z,-75
2019-04-20T08:46:03.501Z,-74
2019-04-20T08:48:33.233Z,-74
2019-04-20T08:51:03.455Z,-74
2019-04-20T08:53:39.079Z,-74
2019-04-20T08:56:02.325Z,-74
2019-04-20T08:58:18.090Z,-74
2019-04-20T09:00:53.678Z,-74
2019-04-20T09:03:25.486Z,-74
2019-04-20T09:05:59.372Z,-74
2019-04-20T09:08:24.908Z,-74
2019-04-20T09:11:10.014Z,-73
2019-04-20T09:13:32.072Z,-74
2019-04-20T09:15:54.035Z,-74
2019-04-20T09:18:42.080Z,-74
2019-04-20T09:21:08.497Z,-74
2019-04-20T09:23:45.910Z,-73
2019-04-20T09:26:24.643Z,-73
2019-04-20T09:28:56.048Z,-74
2019-04-20T09:31:30.998Z,-74
2019-04-20T09:34:02.512Z,-73
2019-04-20T09:36:40.851Z,-73
2019-04-20T09:39:11.425Z,-74
2019-04-20T09:42:00.787Z,-72
2019-04-20T09:44:24.588Z,-74
2019-04-20T09:46:56.003Z,-73
2019-04-20T09:49:36.178Z,-74
2019-04-20T09:52:09.645Z,-73
2019-04-20T09:54:42.911Z,-72
2019-04-20T09:57:13.249Z,-72
2019-04-20T09:59:44.826Z,-72
2019-04-20T10:02:06.810Z,-72
2019-04-20T10:04:29.192Z,-72
2019-04-20T10:07:02.247Z,-72
2019-04-20T10:09:34.712Z,-72
2019-04-20T10:12:01.673Z,-72
2019-04-20T10:14:31.145Z,-72
2019-04-20T10:17:00.418Z,-72
2019-04-20T10:19:33.692Z,-72
2019-04-20T10:22:00.839Z,-72
2019-04-20T10:24:30.642Z,-72
2019-04-20T10:27:00.822Z,-72
2019-04-20T10:29:31.220Z,-72
2019-04-20T10:32:05.716Z,-72
2019-04-20T10:34:32.733Z,-72
2019-04-20T10:37:03.965Z,-72
2019-04-20T10:39:36.276Z,-72
2019-04-20T10:42:06.016Z,-72
2019-04-20T10:44:36.951Z,-72
2019-04-20T10:47:07.280Z,-71
2019-04-20T10:49:38.284Z,-71
2019-04-20T10:52:07.752Z,-70
2019-04-20T10:54:36.906Z,-71
2019-04-20T10:57:07.755Z,-71
2019-04-20T10:59:37.345Z,-71
2019-04-20T11:02:07.792Z,-69
2019-04-20T11:04:37.134Z,-70
2019-04-20T11:07:06.350Z,-71
2019-04-20T11:09:36.648Z,-71
2019-04-20T11:12:06.441Z,-70
2019-04-20T11:14:38.751Z,-70
2019-04-20T11:17:08.583Z,-70
2019-04-20T11:19:39.116Z,-71
2019-04-20T11:22:08.851Z,-76
2019-04-20T11:24:38.713Z,-78
2019-04-20T11:27:08.245Z,-70
2019-04-20T11:29:38.052Z,-70
2019-04-20T11:32:07.554Z,-70
2019-04-20T11:34:39.956Z,-71
2019-04-20T11:37:08.821Z,-70
2019-04-20T11:39:39.088Z,-70
2019-04-20T11:42:09.833Z,-70
2019-04-20T11:44:39.515Z,-70
2019-04-20T11:47:08.782Z,-71
2019-04-20T11:49:37.950Z,-70
2019-04-20T11:52:07.746Z,-70
2019-04-20T11:54:37.054Z,-71
2019-04-20T11:57:07.084Z,-71
2019-04-20T11:59:37.129Z,-71
2019-04-20T12:02:25.358Z,-71
2019-04-20T12:05:10.104Z,-71
2019-04-20T12:07:24.890Z,-70
2019-04-20T12:09:59.394Z,-71
2019-04-20T12:12:35.004Z,-70
2019-04-20T12:14:56.751Z,-70
2019-04-20T12:17:26.006Z,-70
2019-04-20T12:19:55.701Z,-70
2019-04-20T12:22:26.192Z,-70
2019-04-20T12:24:56.212Z,-71
2019-04-20T12:27:26.888Z,-71
2019-04-20T12:29:57.569Z,-71
2019-04-20T12:32:34.248Z,-71
2019-04-20T12:34:58.222Z,-71
2019-04-20T12:37:27.673Z,-71
2019-04-20T12:39:58.413Z,-71
2019-04-20T12:42:28.764Z,-71
2019-04-20T12:44:57.965Z,-71
2019-04-20T12:47:27.894Z,-71
2019-04-20T12:49:57.355Z,-71
2019-04-20T12:52:26.766Z,-71
2019-04-20T12:54:57.487Z,-71
2019-04-20T12:57:28.975Z,-71
2019-04-20T12:59:59.458Z,-70
2019-04-20T13:02:29.305Z,-71
2019-04-20T13:04:59.523Z,-71
2019-04-20T13:07:31.548Z,-71
2019-04-20T13:10:02.232Z,-72
2019-04-20T13:12:50.250Z,-71
2019-04-20T13:15:40.607Z,-71
2019-04-20T13:18:11.544Z,-71
2019-04-20T13:20:42.033Z,-72
2019-04-20T13:23:11.256Z,-71
2019-04-20T13:25:41.245Z,-72
2019-04-20T13:28:10.742Z,-72
2019-04-20T13:30:40.222Z,-71
2019-04-20T13:33:10.089Z,-71
2019-04-20T13:35:40.535Z,-71
2019-04-20T13:38:10.323Z,-71
2019-04-20T13:40:39.832Z,-71
2019-04-20T13:43:09.912Z,-71
2019-04-20T13:45:39.495Z,-71
2019-04-20T13:48:09.004Z,-71
2019-04-20T13:50:38.278Z,-71
2019-04-20T13:53:07.869Z,-71
2019-04-20T13:55:37.973Z,-73
2019-04-20T13:58:15.984Z,-73
2019-04-20T14:01:03.083Z,-72
2019-04-20T14:03:36.619Z,-71
2019-04-20T14:06:06.842Z,-71
2019-04-20T14:08:39.253Z,-71
2019-04-20T14:11:09.436Z,-71
2019-04-20T14:13:48.989Z,-71
2019-04-20T14:16:14.383Z,-71
2019-04-20T14:18:45.098Z,-72
2019-04-20T14:21:14.461Z,-71
2019-04-20T14:23:43.744Z,-69
2019-04-20T14:26:12.896Z,-72
2019-04-20T14:28:42.946Z,-70
2019-04-20T14:31:12.380Z,-70
2019-04-20T14:33:41.560Z,-72
2019-04-20T14:36:10.967Z,-72
2019-04-20T14:38:40.264Z,-73
2019-04-20T14:41:10.599Z,-72
2019-04-20T14:43:39.983Z,-72
2019-04-20T14:46:10.598Z,-72
2019-04-20T14:48:40.695Z,-73
2019-04-20T14:51:09.921Z,-72
2019-04-20T14:53:41.219Z,-72
2019-04-20T14:56:11.423Z,-72
2019-04-20T14:58:43.934Z,-72
2019-04-20T15:01:16.411Z,-70
2019-04-20T15:03:45.552Z,-71
2019-04-20T15:06:15.775Z,-71
2019-04-20T15:08:45.193Z,-72
2019-04-20T15:11:14.816Z,-72
2019-04-20T15:13:44.736Z,-72
2019-04-20T15:16:15.038Z,-72
2019-04-20T15:18:58.152Z,-72
2019-04-20T15:21:33.555Z,-72
2019-04-20T15:24:03.672Z,-72
2019-04-20T15:26:34.164Z,-72
2019-04-20T15:29:04.416Z,-72
2019-04-20T15:31:34.310Z,-72
2019-04-20T15:34:04.579Z,-72
2019-04-20T15:36:34.142Z,-72
2019-04-20T15:39:05.220Z,-72
2019-04-20T15:41:35.806Z,-73
2019-04-20T15:44:05.290Z,-72
2019-04-20T15:46:36.533Z,-72
2019-04-20T15:49:06.130Z,-73
2019-04-20T15:51:35.446Z,-72
2019-04-20T15:54:05.345Z,-73
2019-04-20T15:56:35.531Z,-73
2019-04-20T15:59:06.354Z,-72
2019-04-20T16:01:38.486Z,-72
2019-04-20T16:04:21.746Z,-72
2019-04-20T16:06:43.405Z,-71
2019-04-20T16:09:17.925Z,-71
2019-04-20T16:11:48.766Z,-71
2019-04-20T16:14:19.553Z,-72
2019-04-20T16:16:48.847Z,-71
2019-04-20T16:19:32.271Z,-71
2019-04-20T16:21:49.895Z,-71
2019-04-20T16:24:22.244Z,-64
2019-04-20T16:27:09.730Z,-64
2019-04-20T16:29:39.712Z,-64
2019-04-20T16:32:09.691Z,-64
2019-04-20T16:34:40.255Z,-64
2019-04-20T16:37:10.632Z,-64
2019-04-20T16:39:40.720Z,-64
2019-04-20T16:42:12.018Z,-64
2019-04-20T16:44:45.000Z,-64
2019-04-20T16:47:14.684Z,-63
2019-04-20T16:49:44.069Z,-64
2019-04-20T16:52:13.269Z,-64
2019-04-20T16:54:44.013Z,-64
2019-04-20T16:57:15.582Z,-64
2019-04-20T16:59:48.282Z,-64
2019-04-20T17:02:17.452Z,-63
2019-04-20T17:04:47.207Z,-64
2019-04-20T17:07:20.546Z,-64
2019-04-20T17:09:51.853Z,-64
2019-04-20T17:12:21.727Z,-64
2019-04-20T17:14:51.676Z,-64
2019-04-20T17:17:29.575Z,-63
2019-04-20T17:19:59.679Z,-64
2019-04-20T17:22:30.017Z,-64
2019-04-20T17:24:59.621Z,-65
2019-04-20T17:27:48.889Z,-64
2019-04-20T17:30:27.086Z,-64
2019-04-20T17:33:04.172Z,-64
2019-04-20T17:35:43.474Z,-65
2019-04-20T17:38:06.523Z,-64
2019-04-20T17:40:59.134Z,-65
2019-04-20T17:43:17.898Z,-64
2019-04-20T17:45:49.674Z,-64
2019-04-20T17:48:23.313Z,-66
2019-04-20T17:51:07.891Z,-66
2019-04-20T17:53:29.327Z,-65
2019-04-20T17:55:53.490Z,-65
2019-04-20T17:58:27.904Z,-65
2019-04-20T18:01:24.999Z,-65
2019-04-20T18:04:39.787Z,-65
2019-04-20T18:06:34.876Z,-65
2019-04-20T18:09:05.288Z,-65
2019-04-20T18:11:24.365Z,-65
2019-04-20T18:13:58.905Z,-65
2019-04-20T18:16:46.630Z,-65
2019-04-20T18:19:04.123Z,-65
2019-04-20T18:21:43.433Z,-65
2019-04-20T18:24:24.269Z,-65
2019-04-20T18:27:02.939Z,-64
2019-04-20T18:29:36.774Z,-64
2019-04-20T18:31:51.458Z,-64
2019-04-20T18:34:25.685Z,-64
2019-04-20T18:36:54.572Z,-64
2019-04-20T18:39:33.396Z,-64
2019-04-20T18:42:07.934Z,-64
2019-04-20T18:44:35.078Z,-64
2019-04-20T18:47:16.736Z,-64
2019-04-20T18:49:44.925Z,-64
2019-04-20T18:52:01.857Z,-64
2019-04-20T18:54:37.637Z,-63
2019-04-20T18:57:03.632Z,-63
2019-04-20T18:59:40.639Z,-64
2019-04-20T19:02:11.434Z,-63
2019-04-20T19:04:37.551Z,-64
2019-04-20T19:07:07.917Z,-65
2019-04-20T19:09:39.359Z,-65
2019-04-20T19:12:13.172Z,-64
2019-04-20T19:15:12.094Z,-64
2019-04-20T19:17:45.216Z,-64
2019-04-20T19:20:18.350Z,-64
2019-04-20T19:22:48.259Z,-64
2019-04-20T19:25:25.732Z,-65
2019-04-20T19:27:53.917Z,-65
2019-04-20T19:30:32.717Z,-65
2019-04-20T19:33:09.081Z,-65
2019-04-20T19:35:33.593Z,-65
2019-04-20T19:38:06.599Z,-63
2019-04-20T19:40:40.984Z,-63
2019-04-20T19:43:08.560Z,-62
2019-04-20T19:45:56.673Z,-63
2019-04-20T19:48:21.766Z,-62
2019-04-20T19:50:56.021Z,-62
2019-04-20T19:53:26.666Z,-62
2019-04-20T19:55:47.889Z,-62
2019-04-20T19:58:17.507Z,-63
2019-04-20T20:00:49.112Z,-63
2019-04-20T20:03:17.539Z,-62
2019-04-20T20:05:49.939Z,-62
2019-04-20T20:08:23.290Z,-63
2019-04-20T20:10:52.607Z,-62
2019-04-20T20:13:27.622Z,-63
2019-04-20T20:16:09.027Z,-62
2019-04-20T20:18:39.231Z,-63
2019-04-20T20:21:12.682Z,-62
2019-04-20T20:23:27.926Z,-62
2019-04-20T20:25:58.829Z,-63
2019-04-20T20:28:37.045Z,-62
2019-04-20T20:31:08.653Z,-63
2019-04-20T20:33:43.654Z,-63
2019-04-20T20:36:10.803Z,-63
2019-04-20T20:38:39.745Z,-62
2019-04-20T20:41:15.171Z,-63
2019-04-20T20:43:51.205Z,-62
2019-04-20T20:46:21.615Z,-62
2019-04-20T20:49:03.083Z,-63
2019-04-20T20:51:35.793Z,-63
2019-04-20T20:53:52.254Z,-62
2019-04-20T20:56:19.202Z,-63
2019-04-20T20:58:53.891Z,-62
2019-04-20T21:01:21.425Z,-62
2019-04-20T21:03:48.594Z,-62
2019-04-20T21:06:18.244Z,-63
2019-04-20T21:08:51.474Z,-71
2019-04-20T21:11:22.002Z,-70
2019-04-20T21:13:49.251Z,-71
2019-04-20T21:16:23.860Z,-67
2019-04-20T21:19:05.992Z,-68
2019-04-20T21:21:37.350Z,-67
2019-04-20T21:24:01.406Z,-68
2019-04-20T21:26:30.566Z,-68
2019-04-20T21:29:03.946Z,-68
2019-04-20T21:31:34.306Z,-67
2019-04-20T21:34:10.503Z,-67
2019-04-20T21:36:36.774Z,-68
2019-04-20T21:39:16.292Z,-69
2019-04-20T21:41:48.978Z,-68
2019-04-20T21:44:21.527Z,-68
2019-04-20T21:46:49.669Z,-68
2019-04-20T21:49:31.156Z,-68
2019-04-20T21:51:55.698Z,-68
2019-04-20T21:54:18.323Z,-68
2019-04-20T21:56:53.793Z,-68
2019-04-20T21:59:36.313Z,-68
2019-04-20T22:02:10.703Z,-68
2019-04-20T22:04:33.547Z,-68
2019-04-20T22:07:02.849Z,-68
2019-04-20T22:09:40.035Z,-68
2019-04-20T22:12:03.438Z,-68
2019-04-20T22:14:33.938Z,-68
2019-04-20T22:17:05.354Z,-68
2019-04-20T22:19:44.149Z,-68
2019-04-20T22:22:18.495Z,-68
2019-04-20T22:24:53.899Z,-68
2019-04-20T22:27:16.827Z,-68
2019-04-20T22:29:39.665Z,-68
2019-04-20T22:32:13.389Z,-68
2019-04-20T22:34:41.763Z,-68
2019-04-20T22:37:17.826Z,-68
2019-04-20T22:39:49.798Z,-68
2019-04-20T22:42:17.933Z,-68
2019-04-20T22:44:47.986Z,-74
2019-04-20T22:47:23.103Z,-74
2019-04-20T22:50:08.193Z,-74
2019-04-20T22:52:34.791Z,-74
2019-04-20T22:55:12.054Z,-74
2019-04-20T22:57:39.068Z,-75
2019-04-20T23:00:02.063Z,-75
2019-04-20T23:02:25.267Z,-75
2019-04-20T23:04:54.927Z,-73
2019-04-20T23:07:24.341Z,-74
2019-04-20T23:09:56.436Z,-76
2019-04-20T23:12:26.971Z,-73
2019-04-20T23:14:56.487Z,-73
2019-04-20T23:17:33.531Z,-73
2019-04-20T23:19:59.988Z,-74
2019-04-20T23:22:34.804Z,-73
2019-04-20T23:24:59.458Z,-74
2019-04-20T23:27:31.509Z,-73
2019-04-20T23:30:05.923Z,-73
2019-04-20T23:32:32.016Z,-73
2019-04-20T23:35:04.945Z,-73
2019-04-20T23:37:35.630Z,-74
2019-04-20T23:40:23.600Z,-75
2019-04-20T23:42:55.797Z,-66
2019-04-20T23:45:38.578Z,-68
2019-04-20T23:48:23.678Z,-67
2019-04-20T23:51:07.956Z,-67
2019-04-20T23:53:39.373Z,-67
2019-04-20T23:55:52.104Z,-67
2019-04-20T23:58:21.458Z,-67
